Time;durP1;ratioP1;P1;durP2;ratioP2;P2;SDS_P1;SDS_P2;PMS_P1;PMS_P2;Temp;Humidity;BMP_temperature;BMP_pressure;BME280_temperature;BME280_humidity;BME280_pressure;Samples;Min_cycle;Max_cycle;Signal;HPM_P1;HPM_P2
2023/06/04 00:02:10;;;;;;;3.40;2.50;;;13.70;15.90;;;;;;5010181;28;20947;-73
2023/06/04 00:04:35;;;;;;;5.97;2.47;;;13.70;15.80;;;;;;5010241;28;20423;-73
2023/06/04 00:07:07;;;;;;;2.90;2.08;;;13.60;15.90;;;;;;5010346;28;20405;-73
2023/06/04 00:09:32;;;;;;;5.47;2.60;;;13.50;16.20;;;;;;5010294;28;20412;-73
2023/06/04 00:11:58;;;;;;;5.57;2.30;;;13.40;16.20;;;;;;5010264;28;20511;-73
2023/06/04 00:14:23;;;;;;;2.70;2.10;;;13.50;16.10;;;;;;5010266;28;20383;-73
2023/06/04 00:16:49;;;;;;;3.75;2.40;;;13.60;15.50;;;;;;5010568;28;20389;-73
2023/06/04 00:19:15;;;;;;;3.30;2.08;;;13.70;15.30;;;;;;5010520;28;20456;-73
2023/06/04 00:21:40;;;;;;;7.35;2.40;;;13.70;15.40;;;;;;5010283;28;20383;-73
2023/06/04 00:24:06;;;;;;;3.40;2.50;;;13.70;15.70;;;;;;4992660;28;20388;-73
2023/06/04 00:26:32;;;;;;;3.70;2.10;;;13.70;16.00;;;;;;5010187;28;20753;-73
2023/06/04 00:28:58;;;;;;;4.50;2.50;;;13.70;16.30;;;;;;5010087;28;20385;-73
2023/06/04 00:31:24;;;;;;;4.47;2.50;;;13.70;16.60;;;;;;4992744;28;20400;-73
2023/06/04 00:33:50;;;;;;;3.40;2.30;;;13.60;17.10;;;;;;5010149;28;20836;-73
2023/06/04 00:36:15;;;;;;;4.97;2.87;;;13.60;17.00;;;;;;5010236;28;20405;-73
2023/06/04 00:38:41;;;;;;;5.83;2.40;;;13.50;17.40;;;;;;5010529;28;20377;-73
2023/06/04 00:41:07;;;;;;;3.43;2.50;;;13.50;17.10;;;;;;5009885;28;20444;-73
2023/06/04 00:43:33;;;;;;;3.70;2.37;;;13.60;17.10;;;;;;5012030;28;20416;-74
2023/06/04 00:45:59;;;;;;;4.45;2.25;;;13.50;17.20;;;;;;5014315;28;20407;-73
2023/06/04 00:48:27;;;;;;;2.88;2.28;;;13.60;17.20;;;;;;5016736;28;20416;-72
2023/06/04 00:50:53;;;;;;;3.85;2.40;;;13.50;17.40;;;;;;5013503;28;20470;-72
2023/06/04 00:53:24;;;;;;;2.95;2.03;;;13.50;17.50;;;;;;5014844;28;20980;-72
2023/06/04 00:55:50;;;;;;;2.92;2.40;;;13.40;17.50;;;;;;5018084;28;20381;-74
2023/06/04 00:58:16;;;;;;;5.43;2.50;;;13.40;17.70;;;;;;5018575;28;20389;-72
2023/06/04 01:00:44;;;;;;;4.35;2.40;;;13.30;18.10;;;;;;5015717;28;20465;-72
2023/06/04 01:03:13;;;;;;;3.42;2.55;;;13.20;18.30;;;;;;5013140;28;20416;-72
2023/06/04 01:05:48;;;;;;;2.72;2.28;;;13.20;18.00;;;;;;5013376;28;20397;-72
2023/06/04 01:08:15;;;;;;;7.43;2.42;;;13.20;17.90;;;;;;4995561;28;20397;-72
2023/06/04 01:10:55;;;;;;;7.50;2.40;;;13.20;18.10;;;;;;5013268;28;20405;-72
2023/06/04 01:13:20;;;;;;;3.63;2.38;;;13.20;17.90;;;;;;5013450;28;20427;-73
2023/06/04 01:15:46;;;;;;;3.10;2.25;;;13.20;18.10;;;;;;5013157;28;20417;-72
2023/06/04 01:18:27;;;;;;;3.73;2.50;;;13.10;18.30;;;;;;5013434;28;20476;-72
2023/06/04 01:20:55;;;;;;;3.92;2.42;;;13.10;18.10;;;;;;5012962;28;20923;-72
2023/06/04 01:23:36;;;;;;;5.10;2.67;;;13.10;18.00;;;;;;5013063;28;20393;-73
2023/06/04 01:26:04;;;;;;;4.43;3.15;;;13.10;18.30;;;;;;5012963;28;20479;-73
2023/06/04 01:28:32;;;;;;;4.27;3.13;;;13.10;18.50;;;;;;5013643;28;21227;-73
2023/06/04 01:30:59;;;;;;;4.00;2.80;;;13.00;18.50;;;;;;5012741;28;20492;-73
2023/06/04 01:33:25;;;;;;;4.43;3.20;;;13.00;18.70;;;;;;5012985;28;20397;-73
2023/06/04 01:35:51;;;;;;;6.50;3.00;;;12.90;18.70;;;;;;5013205;28;20460;-73
2023/06/04 01:38:17;;;;;;;6.35;3.10;;;13.00;18.80;;;;;;5013247;28;20481;-72
2023/06/04 01:40:42;;;;;;;6.25;3.13;;;12.90;18.90;;;;;;5013425;28;20723;-71
2023/06/04 01:43:08;;;;;;;7.43;3.92;;;13.00;18.70;;;;;;5013577;28;20912;-72
2023/06/04 01:45:34;;;;;;;4.55;3.13;;;12.90;18.80;;;;;;5014019;28;20409;-72
2023/06/04 01:48:02;;;;;;;5.88;3.10;;;12.90;18.70;;;;;;5012742;28;20469;-75
2023/06/04 01:50:28;;;;;;;7.32;2.97;;;12.90;18.90;;;;;;5012784;28;20408;-72
2023/06/04 01:52:54;;;;;;;5.10;3.10;;;12.80;18.90;;;;;;5015498;28;20426;-72
2023/06/04 01:55:19;;;;;;;4.22;2.60;;;12.80;18.90;;;;;;5000655;28;20864;-73
2023/06/04 01:57:47;;;;;;;6.60;3.60;;;12.90;19.00;;;;;;4975384;28;20391;-73
2023/06/04 02:00:13;;;;;;;5.88;3.20;;;12.80;19.00;;;;;;5010241;28;20404;-73
2023/06/04 02:02:41;;;;;;;7.32;2.95;;;12.80;19.00;;;;;;5011194;28;20396;-73
2023/06/04 02:05:07;;;;;;;6.38;3.33;;;12.70;19.40;;;;;;5012360;28;20428;-73
2023/06/04 02:07:40;;;;;;;5.53;3.20;;;12.70;19.20;;;;;;5022503;28;20473;-73
2023/06/04 02:10:11;;;;;;;5.07;3.13;;;12.70;19.00;;;;;;5020819;28;20707;-74
2023/06/04 02:12:39;;;;;;;6.28;3.22;;;12.70;18.70;;;;;;5014486;28;20385;-73
2023/06/04 02:15:05;;;;;;;6.03;2.95;;;12.80;18.80;;;;;;5016017;28;20480;-73
2023/06/04 02:17:37;;;;;;;4.00;2.80;;;12.70;18.90;;;;;;5013001;28;20830;-73
2023/06/04 02:20:04;;;;;;;4.70;2.85;;;12.70;19.00;;;;;;5012045;28;20392;-73
2023/06/04 02:22:30;;;;;;;7.95;3.35;;;12.60;19.40;;;;;;5011730;28;20778;-73
2023/06/04 02:24:55;;;;;;;4.50;3.10;;;12.40;19.80;;;;;;5011756;28;20395;-73
2023/06/04 02:27:21;;;;;;;4.43;2.75;;;12.40;20.00;;;;;;5011743;28;20948;-73
2023/06/04 02:29:46;;;;;;;8.60;3.40;;;12.40;20.00;;;;;;5011648;28;21174;-73
2023/06/04 02:32:12;;;;;;;5.38;3.05;;;12.50;20.00;;;;;;5011228;28;20413;-73
2023/06/04 02:34:37;;;;;;;6.20;3.50;;;12.50;19.90;;;;;;5011346;28;20746;-72
2023/06/04 02:37:03;;;;;;;4.80;3.07;;;12.30;20.20;;;;;;5011631;28;20403;-72
2023/06/04 02:39:29;;;;;;;7.07;3.30;;;12.20;20.70;;;;;;5011597;28;20389;-72
2023/06/04 02:41:55;;;;;;;4.70;2.90;;;12.30;20.90;;;;;;5010044;28;20797;-73
2023/06/04 02:44:20;;;;;;;4.70;2.80;;;12.20;20.90;;;;;;5011614;28;20413;-73
2023/06/04 02:46:46;;;;;;;5.67;3.33;;;12.20;20.80;;;;;;5011356;28;20899;-73
2023/06/04 02:49:16;;;;;;;5.43;2.90;;;12.20;20.50;;;;;;5011422;28;20888;-73
2023/06/04 02:51:42;;;;;;;4.55;3.00;;;12.20;20.60;;;;;;5011352;28;20757;-73
2023/06/04 02:54:07;;;;;;;4.32;2.90;;;12.10;20.90;;;;;;5011232;28;20492;-73
2023/06/04 02:56:35;;;;;;;5.68;3.40;;;12.20;21.00;;;;;;5011488;28;20491;-73
2023/06/04 02:59:01;;;;;;;6.05;2.80;;;12.10;21.00;;;;;;5011333;28;20797;-73
2023/06/04 03:01:26;;;;;;;5.25;3.10;;;12.10;21.40;;;;;;5011181;28;20392;-73
2023/06/04 03:03:53;;;;;;;4.10;2.90;;;12.20;20.80;;;;;;5011034;28;20397;-73
2023/06/04 03:06:21;;;;;;;6.40;3.10;;;12.30;20.50;;;;;;5011103;28;20821;-72
2023/06/04 03:08:47;;;;;;;5.53;3.00;;;12.20;20.70;;;;;;5010968;28;20387;-73
2023/06/04 03:11:13;;;;;;;5.97;2.90;;;12.20;21.10;;;;;;5010947;28;20404;-73
2023/06/04 03:13:39;;;;;;;6.70;3.10;;;12.30;20.70;;;;;;5011023;28;20380;-73
2023/06/04 03:16:09;;;;;;;4.00;2.70;;;12.10;21.40;;;;;;5010839;28;20438;-73
2023/06/04 03:18:42;;;;;;;5.53;2.80;;;12.00;21.80;;;;;;5011109;28;20416;-73
2023/06/04 03:21:08;;;;;;;3.65;3.00;;;11.80;22.30;;;;;;5010739;28;20750;-73
2023/06/04 03:23:35;;;;;;;5.95;2.80;;;11.90;22.70;;;;;;5011230;28;20403;-73
2023/06/04 03:26:02;;;;;;;7.35;3.05;;;12.10;21.80;;;;;;5010106;28;20400;-73
2023/06/04 03:28:28;;;;;;;4.85;2.60;;;12.00;21.90;;;;;;5010998;28;20470;-74
2023/06/04 03:30:53;;;;;;;3.95;2.83;;;12.00;22.50;;;;;;5010750;28;20983;-73
2023/06/04 03:33:19;;;;;;;6.60;2.92;;;11.90;22.60;;;;;;5028366;23;20376;-74
2023/06/04 03:35:45;;;;;;;6.95;2.80;;;12.10;22.20;;;;;;5061985;28;20437;-73
2023/06/04 03:38:11;;;;;;;4.10;2.70;;;12.20;22.00;;;;;;5066690;28;20389;-74
2023/06/04 03:40:36;;;;;;;5.30;2.70;;;12.20;21.80;;;;;;5065712;28;20457;-73
2023/06/04 03:43:04;;;;;;;6.90;2.80;;;12.30;21.50;;;;;;5064661;28;20382;-74
2023/06/04 03:45:30;;;;;;;4.13;2.72;;;12.30;21.40;;;;;;5062479;28;20800;-73
2023/06/04 03:47:55;;;;;;;5.45;2.78;;;12.30;21.30;;;;;;5057555;28;20401;-74
2023/06/04 03:50:21;;;;;;;6.80;3.08;;;12.30;21.60;;;;;;5058822;28;20408;-74
2023/06/04 03:52:48;;;;;;;5.60;3.13;;;12.20;21.70;;;;;;5059311;28;20381;-74
2023/06/04 03:55:14;;;;;;;6.78;2.80;;;12.20;21.90;;;;;;5069288;28;20373;-74
2023/06/04 03:57:40;;;;;;;7.30;3.10;;;12.20;22.00;;;;;;5069861;28;20377;-74
2023/06/04 04:00:12;;;;;;;4.45;2.80;;;12.30;21.90;;;;;;5067888;28;20385;-74
2023/06/04 04:02:38;;;;;;;4.10;2.83;;;12.40;21.60;;;;;;5066473;28;20408;-73
2023/06/04 04:05:04;;;;;;;6.80;2.90;;;12.40;21.80;;;;;;5061525;28;20400;-74
2023/06/04 04:07:29;;;;;;;5.87;3.20;;;12.40;21.80;;;;;;5056516;28;20417;-73
2023/06/04 04:09:55;;;;;;;4.97;2.70;;;12.40;21.70;;;;;;5056515;28;21095;-75
2023/06/04 04:12:21;;;;;;;3.30;2.80;;;12.40;21.90;;;;;;5055863;28;20382;-73
2023/06/04 04:14:47;;;;;;;3.28;2.80;;;12.40;21.80;;;;;;5051531;28;20421;-74
2023/06/04 04:17:16;;;;;;;3.80;2.70;;;12.40;21.90;;;;;;5051352;28;20492;-74
2023/06/04 04:19:42;;;;;;;10.82;3.30;;;12.40;22.10;;;;;;5053965;28;20381;-74
2023/06/04 04:22:08;;;;;;;5.63;3.20;;;12.40;22.00;;;;;;5058553;28;20397;-73
2023/06/04 04:24:36;;;;;;;4.85;3.15;;;12.30;22.70;;;;;;5056272;28;20892;-73
2023/06/04 04:27:03;;;;;;;4.07;3.00;;;12.40;22.50;;;;;;5054550;28;20453;-74
2023/06/04 04:29:32;;;;;;;3.33;2.50;;;12.40;22.40;;;;;;5055028;28;20462;-74
2023/06/04 04:32:00;;;;;;;6.40;3.10;;;12.50;22.00;;;;;;5053998;28;20432;-73
2023/06/04 04:34:26;;;;;;;5.57;3.30;;;12.60;22.00;;;;;;5054601;28;20417;-73
2023/06/04 04:36:52;;;;;;;6.75;2.95;;;12.60;21.80;;;;;;5054223;28;20390;-74
2023/06/04 04:39:20;;;;;;;8.18;3.30;;;12.50;22.50;;;;;;5064460;28;20641;-73
2023/06/04 04:41:46;;;;;;;5.63;2.90;;;12.50;22.40;;;;;;5070612;28;20381;-74
2023/06/04 04:44:11;;;;;;;3.65;2.90;;;12.60;22.00;;;;;;5069393;28;20385;-74
2023/06/04 04:46:37;;;;;;;4.95;3.00;;;12.80;21.50;;;;;;5066123;28;20793;-74
2023/06/04 04:49:02;;;;;;;5.07;2.90;;;12.80;21.30;;;;;;5053059;28;20753;-75
2023/06/04 04:51:28;;;;;;;4.47;3.10;;;12.80;21.40;;;;;;5054050;28;20397;-75
2023/06/04 04:53:54;;;;;;;4.53;2.72;;;12.90;21.20;;;;;;5053993;28;20381;-73
2023/06/04 04:56:20;;;;;;;4.90;3.10;;;12.90;21.00;;;;;;5054245;28;20942;-74
2023/06/04 04:58:45;;;;;;;7.80;3.00;;;13.10;20.60;;;;;;5054138;28;20381;-74
2023/06/04 05:01:11;;;;;;;4.27;2.87;;;13.20;20.00;;;;;;5052331;28;20466;-74
2023/06/04 05:03:37;;;;;;;4.50;2.93;;;13.20;20.10;;;;;;5052431;28;20390;-74
2023/06/04 05:06:02;;;;;;;4.22;2.97;;;13.20;20.00;;;;;;5053659;28;20397;-74
2023/06/04 05:08:28;;;;;;;3.27;2.63;;;13.30;20.00;;;;;;5053941;28;20810;-73
2023/06/04 05:10:53;;;;;;;7.00;3.10;;;13.50;19.60;;;;;;5053392;28;20471;-73
2023/06/04 05:13:20;;;;;;;4.60;2.70;;;13.60;19.40;;;;;;5052716;28;20397;-74
2023/06/04 05:15:47;;;;;;;5.57;3.10;;;13.70;18.90;;;;;;5054002;28;20378;-74
2023/06/04 05:18:13;;;;;;;8.90;3.10;;;13.80;19.20;;;;;;5052703;28;20758;-74
2023/06/04 05:20:38;;;;;;;4.57;3.00;;;13.80;19.30;;;;;;5053686;28;20401;-74
2023/06/04 05:23:04;;;;;;;5.20;2.70;;;13.90;18.90;;;;;;5053528;28;20480;-75
2023/06/04 05:25:31;;;;;;;6.90;3.10;;;14.00;18.70;;;;;;5063760;28;20388;-74
2023/06/04 05:27:57;;;;;;;6.70;3.00;;;14.00;18.50;;;;;;5071395;28;20389;-74
2023/06/04 05:30:22;;;;;;;3.60;2.70;;;14.00;18.40;;;;;;5068558;28;20400;-73
2023/06/04 05:32:50;;;;;;;5.07;3.03;;;14.20;18.80;;;;;;5055612;28;20390;-74
2023/06/04 05:35:16;;;;;;;4.85;2.58;;;14.30;18.30;;;;;;5055179;28;20447;-73
2023/06/04 05:37:45;;;;;;;4.93;2.50;;;14.30;18.10;;;;;;5054560;28;20444;-74
2023/06/04 05:40:11;;;;;;;4.30;2.90;;;14.40;18.60;;;;;;5053288;28;20424;-74
2023/06/04 05:42:37;;;;;;;5.20;2.80;;;14.60;18.00;;;;;;5055092;28;20413;-74
2023/06/04 05:45:03;;;;;;;8.80;5.30;;;14.60;17.50;;;;;;5055012;28;20386;-74
2023/06/04 05:47:29;;;;;;;4.43;2.83;;;14.60;17.30;;;;;;5053079;28;20781;-74
2023/06/04 05:49:55;;;;;;;8.35;3.08;;;14.70;17.40;;;;;;5051550;28;20408;-70
2023/06/04 05:52:20;;;;;;;6.13;2.90;;;14.80;17.00;;;;;;5053023;28;21031;-70
2023/06/04 05:54:46;;;;;;;3.95;2.90;;;14.90;16.80;;;;;;5052844;28;20431;-71
2023/06/04 05:57:12;;;;;;;4.20;2.47;;;15.00;16.50;;;;;;5053840;28;20532;-72
2023/06/04 05:59:37;;;;;;;4.05;2.70;;;15.10;16.60;;;;;;5053531;28;20785;-70
2023/06/04 06:02:03;;;;;;;3.97;2.87;;;15.30;15.90;;;;;;5052309;28;20378;-70
2023/06/04 06:04:29;;;;;;;3.70;2.87;;;15.40;15.80;;;;;;5052885;28;20897;-70
2023/06/04 06:06:55;;;;;;;3.63;2.45;;;15.50;15.70;;;;;;5052535;28;20413;-71
2023/06/04 06:09:21;;;;;;;3.65;2.70;;;15.60;15.50;;;;;;5051196;28;20417;-71
2023/06/04 06:11:47;;;;;;;11.20;2.58;;;15.60;15.70;;;;;;5052532;28;20829;-71
2023/06/04 06:14:12;;;;;;;4.53;2.60;;;15.70;15.40;;;;;;5052827;28;20389;-71
2023/06/04 06:16:38;;;;;;;5.00;2.53;;;15.70;15.40;;;;;;5052656;28;20508;-72
2023/06/04 06:19:03;;;;;;;6.50;2.50;;;15.80;15.40;;;;;;5052637;28;20389;-70
2023/06/04 06:21:29;;;;;;;3.67;2.47;;;15.90;15.20;;;;;;5052502;28;20389;-71
2023/06/04 06:23:55;;;;;;;5.80;2.65;;;16.00;14.80;;;;;;5052741;28;20535;-71
2023/06/04 06:26:21;;;;;;;5.72;2.50;;;16.10;14.20;;;;;;5052464;28;20746;-70
2023/06/04 06:28:47;;;;;;;6.20;2.70;;;16.10;13.90;;;;;;5051006;28;20436;-71
2023/06/04 06:31:13;;;;;;;5.13;2.87;;;16.20;14.10;;;;;;5050611;28;20834;-69
2023/06/04 06:33:40;;;;;;;4.30;3.00;;;16.30;14.20;;;;;;5052046;28;20396;-70
2023/06/04 06:36:13;;;;;;;7.65;2.40;;;16.50;13.80;;;;;;5051181;28;20500;-71
2023/06/04 06:38:40;;;;;;;4.82;2.60;;;16.60;12.90;;;;;;5051954;28;20811;-71
2023/06/04 06:41:05;;;;;;;4.22;2.80;;;16.70;12.90;;;;;;5051432;28;20382;-70
2023/06/04 06:43:31;;;;;;;4.75;2.58;;;16.80;12.30;;;;;;5051373;28;20381;-71
2023/06/04 06:45:57;;;;;;;5.68;2.40;;;16.90;12.60;;;;;;5051942;28;20933;-70
2023/06/04 06:48:23;;;;;;;5.68;2.90;;;17.00;12.50;;;;;;5051793;28;20469;-70
2023/06/04 06:50:48;;;;;;;3.20;2.50;;;17.00;12.30;;;;;;5051737;28;20411;-71
2023/06/04 06:53:14;;;;;;;8.17;2.73;;;17.10;12.70;;;;;;5051351;28;20397;-70
2023/06/04 06:55:39;;;;;;;5.93;3.20;;;17.20;12.20;;;;;;5051485;28;20377;-71
2023/06/04 06:58:05;;;;;;;5.22;2.70;;;17.30;12.20;;;;;;5051733;28;20754;-71
2023/06/04 07:00:31;;;;;;;4.57;2.50;;;17.40;11.80;;;;;;5052100;28;20742;-71
2023/06/04 07:02:56;;;;;;;5.67;3.03;;;17.50;11.90;;;;;;5051798;28;20384;-70
2023/06/04 07:05:22;;;;;;;3.73;2.40;;;17.50;12.00;;;;;;5052056;28;20845;-70
2023/06/04 07:07:47;;;;;;;4.40;2.50;;;17.60;11.70;;;;;;5051839;28;20397;-69
2023/06/04 07:10:13;;;;;;;5.80;3.17;;;17.50;11.80;;;;;;5051603;28;20405;-70
2023/06/04 07:12:39;;;;;;;6.40;2.80;;;17.60;12.10;;;;;;5051906;28;20389;-70
2023/06/04 07:15:09;;;;;;;4.88;2.88;;;17.70;11.50;;;;;;5052529;28;20369;-70
2023/06/04 07:17:34;;;;;;;4.47;2.80;;;17.80;11.80;;;;;;5052273;28;20443;-71
2023/06/04 07:20:00;;;;;;;7.30;3.20;;;17.90;12.10;;;;;;5051930;28;20417;-70
2023/06/04 07:22:26;;;;;;;19.42;11.40;;;18.10;11.90;;;;;;5051494;28;20484;-70
2023/06/04 07:24:52;;;;;;;11.38;6.28;;;18.20;11.60;;;;;;5050305;28;20394;-70
2023/06/04 07:27:18;;;;;;;6.45;3.97;;;18.30;11.70;;;;;;5052207;28;20382;-71
2023/06/04 07:29:45;;;;;;;12.77;7.22;;;18.30;11.20;;;;;;5051307;28;20452;-70
2023/06/04 07:32:11;;;;;;;10.20;6.00;;;18.50;10.40;;;;;;5050228;28;20381;-71
2023/06/04 07:34:38;;;;;;;5.50;3.50;;;18.50;11.00;;;;;;5066479;28;20869;-71
2023/06/04 07:37:05;;;;;;;7.32;4.65;;;18.60;11.20;;;;;;5049966;28;20396;-71
2023/06/04 07:39:30;;;;;;;7.97;5.10;;;18.70;10.30;;;;;;5051583;28;20389;-71
2023/06/04 07:41:56;;;;;;;9.67;6.00;;;18.80;10.10;;;;;;5051658;28;20385;-71
2023/06/04 07:44:21;;;;;;;8.93;4.60;;;18.80;10.00;;;;;;5051303;28;20422;-71
2023/06/04 07:46:48;;;;;;;10.43;6.38;;;18.80;9.60;;;;;;5051558;28;20377;-70
2023/06/04 07:49:13;;;;;;;8.30;4.60;;;18.90;10.00;;;;;;5051561;28;20866;-71
2023/06/04 07:51:39;;;;;;;9.75;5.63;;;19.00;9.90;;;;;;5051930;28;20447;-73
2023/06/04 07:54:05;;;;;;;12.20;6.80;;;19.00;10.20;;;;;;5052524;28;20385;-70
2023/06/04 07:56:31;;;;;;;8.40;4.00;;;19.10;9.90;;;;;;5054192;28;20894;-70
2023/06/04 07:58:56;;;;;;;6.57;4.40;;;19.20;9.90;;;;;;5055060;28;20385;-70
2023/06/04 08:01:23;;;;;;;6.43;5.00;;;19.30;10.30;;;;;;5054709;28;20403;-71
2023/06/04 08:03:49;;;;;;;8.30;5.15;;;19.40;9.10;;;;;;5054879;28;20424;-70
2023/06/04 08:06:15;;;;;;;6.60;3.97;;;19.60;9.00;;;;;;5054984;28;20454;-71
2023/06/04 08:08:45;;;;;;;7.27;4.07;;;19.70;8.30;;;;;;5055192;28;20870;-69
2023/06/04 08:11:11;;;;;;;8.77;5.03;;;19.80;8.40;;;;;;5054984;28;20401;-71
2023/06/04 08:13:37;;;;;;;9.60;4.47;;;19.80;8.50;;;;;;5055114;28;20396;-69
2023/06/04 08:16:03;;;;;;;7.80;4.80;;;19.80;8.70;;;;;;5055546;28;20377;-70
2023/06/04 08:18:28;;;;;;;8.83;5.20;;;19.70;8.10;;;;;;5054871;28;20417;-69
2023/06/04 08:20:54;;;;;;;10.70;4.82;;;19.80;8.10;;;;;;5054427;28;20385;-71
2023/06/04 08:23:20;;;;;;;6.80;4.30;;;19.90;8.10;;;;;;5054490;28;20377;-70
2023/06/04 08:25:46;;;;;;;8.43;4.88;;;20.00;6.60;;;;;;5054962;28;20381;-70
2023/06/04 08:28:14;;;;;;;6.47;4.73;;;20.10;6.30;;;;;;5054544;28;20378;-70
2023/06/04 08:30:39;;;;;;;5.00;4.50;;;20.10;6.80;;;;;;5054749;28;20774;-69
2023/06/04 08:33:05;;;;;;;4.63;4.10;;;20.30;6.80;;;;;;5055720;28;20385;-70
2023/06/04 08:35:30;;;;;;;9.52;5.07;;;20.40;5.60;;;;;;5055249;28;20782;-71
2023/06/04 08:37:56;;;;;;;6.60;4.10;;;20.60;5.50;;;;;;5054962;28;20373;-70
2023/06/04 08:40:22;;;;;;;8.88;5.15;;;20.60;5.40;;;;;;5055118;28;20783;-72
2023/06/04 08:42:48;;;;;;;6.47;4.05;;;20.60;5.20;;;;;;5056280;28;20505;-71
2023/06/04 08:45:17;;;;;;;5.43;3.95;;;20.70;4.20;;;;;;5056573;28;20400;-70
2023/06/04 08:47:47;;;;;;;6.80;3.80;;;20.60;3.90;;;;;;5056559;28;20419;-72
2023/06/04 08:50:20;;;;;;;9.75;4.35;;;20.60;4.60;;;;;;5054818;28;20428;-72
2023/06/04 08:52:46;;;;;;;9.00;3.92;;;20.60;4.50;;;;;;5055702;28;20377;-72
2023/06/04 08:55:14;;;;;;;7.68;3.60;;;20.70;4.60;;;;;;5054961;28;20381;-71
2023/06/04 08:57:40;;;;;;;7.37;3.20;;;20.70;5.60;;;;;;5055733;28;20407;-70
2023/06/04 09:00:07;;;;;;;7.28;3.10;;;20.60;3.70;;;;;;5054567;28;20439;-72
2023/06/04 09:02:37;;;;;;;7.57;3.50;;;20.60;4.00;;;;;;5055420;28;20790;-71
2023/06/04 09:05:04;;;;;;;5.90;3.05;;;20.60;3.80;;;;;;5062504;28;20395;-73
2023/06/04 09:07:30;;;;;;;9.00;3.97;;;20.70;4.30;;;;;;5059608;28;20395;-71
2023/06/04 09:09:58;;;;;;;7.05;3.20;;;20.80;4.90;;;;;;5075072;28;20434;-69
2023/06/04 09:12:25;;;;;;;8.95;3.67;;;21.00;3.70;;;;;;5057525;28;20396;-70
2023/06/04 09:14:51;;;;;;;6.20;3.50;;;21.00;5.00;;;;;;5076360;28;20393;-72
2023/06/04 09:17:24;;;;;;;5.23;3.80;;;21.10;4.10;;;;;;5053958;28;20393;-71
2023/06/04 09:19:53;;;;;;;5.38;3.25;;;21.00;4.00;;;;;;5045430;28;20419;-70
2023/06/04 09:22:18;;;;;;;7.95;4.20;;;20.90;3.10;;;;;;5073031;28;20495;-72
2023/06/04 09:24:46;;;;;;;8.93;4.25;;;21.00;4.10;;;;;;5080026;28;20470;-73
2023/06/04 09:27:17;;;;;;;7.63;3.83;;;21.10;3.90;;;;;;5054198;28;20470;-73
2023/06/04 09:29:53;;;;;;;6.20;3.30;;;21.30;3.30;;;;;;5055001;28;20423;-74
2023/06/04 09:32:30;;;;;;;6.03;4.03;;;21.20;3.10;;;;;;5056316;28;20381;-73
2023/06/04 09:35:08;;;;;;;6.82;5.32;;;21.10;4.30;;;;;;5056444;28;20433;-71
2023/06/04 09:37:34;;;;;;;13.82;6.47;;;21.30;4.10;;;;;;5056401;28;20403;-74
2023/06/04 09:40:00;;;;;;;6.87;3.60;;;21.40;4.80;;;;;;5071797;28;20403;-73
2023/06/04 09:42:26;;;;;;;5.37;3.40;;;21.60;3.00;;;;;;5056777;28;20394;-73
2023/06/04 09:44:52;;;;;;;4.53;3.30;;;21.60;3.20;;;;;;5053724;28;20397;-73
2023/06/04 09:47:18;;;;;;;6.60;3.30;;;21.50;2.90;;;;;;5072876;28;20411;-73
2023/06/04 09:49:47;;;;;;;6.38;3.10;;;21.40;2.50;;;;;;5070110;28;20395;-72
2023/06/04 09:52:13;;;;;;;10.63;4.20;;;21.30;3.00;;;;;;5061840;28;20526;-72
2023/06/04 09:54:41;;;;;;;6.05;3.45;;;21.40;2.90;;;;;;5073655;28;20372;-72
2023/06/04 09:57:17;;;;;;;7.50;3.70;;;21.60;2.90;;;;;;5073342;28;20420;-73
2023/06/04 09:59:49;;;;;;;5.10;2.70;;;21.70;2.40;;;;;;5071593;28;20422;-71
2023/06/04 10:02:20;;;;;;;7.63;3.38;;;21.50;1.70;;;;;;5061379;28;20389;-74
2023/06/04 10:04:53;;;;;;;8.02;6.40;;;21.60;2.50;;;;;;5055500;28;20382;-77
2023/06/04 10:07:20;;;;;;;9.88;5.20;;;21.80;2.80;;;;;;5055378;28;20385;-77
2023/06/04 10:09:48;;;;;;;6.05;3.40;;;22.00;2.40;;;;;;5056210;28;20441;-74
2023/06/04 10:12:16;;;;;;;12.10;5.90;;;22.10;1.00;;;;;;5055579;28;20386;-74
2023/06/04 10:14:52;;;;;;;5.40;2.95;;;22.10;2.40;;;;;;5056064;28;20417;-77
2023/06/04 10:17:23;;;;;;;8.27;4.03;;;22.10;1.00;;;;;;5057599;28;20377;-73
2023/06/04 10:19:52;;;;;;;7.05;3.38;;;22.20;1.50;;;;;;5056747;28;20417;-73
2023/06/04 10:22:17;;;;;;;8.27;3.53;;;22.20;1.00;;;;;;5056056;28;20401;-76
2023/06/04 10:24:44;;;;;;;7.05;3.42;;;22.20;1.00;;;;;;5071402;28;20397;-76
2023/06/04 10:27:12;;;;;;;8.77;4.53;;;22.20;1.00;;;;;;5057373;28;20434;-74
2023/06/04 10:29:42;;;;;;;6.38;4.38;;;22.30;1.20;;;;;;5061246;28;20408;-74
2023/06/04 10:32:07;;;;;;;9.85;6.65;;;22.30;1.10;;;;;;5059630;28;20377;-76
2023/06/04 10:34:34;;;;;;;5.53;3.33;;;22.40;1.50;;;;;;5056651;28;20827;-75
2023/06/04 10:37:00;;;;;;;11.13;4.35;;;22.40;1.00;;;;;;5061417;28;20421;-72
2023/06/04 10:39:27;;;;;;;6.80;4.40;;;22.40;1.20;;;;;;5057372;28;20435;-75
2023/06/04 10:42:03;;;;;;;9.35;5.40;;;22.60;1.10;;;;;;5055318;28;20428;-75
2023/06/04 10:44:47;;;;;;;3.85;2.70;;;22.60;1.30;;;;;;5053978;28;20750;-77
2023/06/04 10:47:23;;;;;;;7.05;3.83;;;22.60;1.00;;;;;;5053742;28;20382;-76
2023/06/04 10:49:54;;;;;;;4.40;2.90;;;22.60;1.00;;;;;;5053607;28;20440;-74
2023/06/04 10:52:20;;;;;;;5.60;2.87;;;22.40;1.00;;;;;;5053571;28;20473;-76
2023/06/04 10:54:48;;;;;;;10.48;4.65;;;22.40;1.00;;;;;;5054241;28;20447;-75
2023/06/04 10:57:18;;;;;;;3.92;2.72;;;22.50;1.00;;;;;;5055574;28;20381;-76
2023/06/04 10:59:56;;;;;;;7.27;3.00;;;22.60;1.00;;;;;;5053627;28;20404;-75
2023/06/04 11:02:22;;;;;;;9.27;2.60;;;22.40;1.00;;;;;;5054686;28;20443;-75
2023/06/04 11:05:01;;;;;;;5.72;3.20;;;22.50;1.00;;;;;;5062618;28;20445;-72
2023/06/04 11:07:27;;;;;;;5.88;4.07;;;22.60;1.00;;;;;;5064510;28;20396;-75
2023/06/04 11:09:53;;;;;;;6.53;3.00;;;22.60;1.00;;;;;;5063124;28;20527;-74
2023/06/04 11:12:18;;;;;;;5.87;2.87;;;22.70;1.00;;;;;;5063699;28;20381;-72
2023/06/04 11:14:57;;;;;;;7.63;2.90;;;22.50;1.00;;;;;;5062144;28;20881;-74
2023/06/04 11:17:22;;;;;;;4.20;2.90;;;22.60;1.00;;;;;;5065633;28;20947;-75
2023/06/04 11:19:48;;;;;;;3.97;2.70;;;22.70;1.00;;;;;;5061169;28;20445;-75
2023/06/04 11:22:14;;;;;;;6.20;4.50;;;22.50;1.00;;;;;;5058821;28;20391;-75
2023/06/04 11:24:40;;;;;;;17.80;5.82;;;22.60;1.00;;;;;;5061048;28;20484;-74
2023/06/04 11:27:05;;;;;;;3.92;3.20;;;22.80;1.20;;;;;;5061021;28;20873;-73
2023/06/04 11:29:32;;;;;;;9.50;5.00;;;23.00;1.00;;;;;;5061218;28;20428;-73
2023/06/04 11:31:57;;;;;;;6.55;4.63;;;23.20;1.00;;;;;;5058339;28;20741;-73
2023/06/04 11:34:23;;;;;;;4.93;3.37;;;23.40;1.00;;;;;;5059745;28;20393;-75
2023/06/04 11:36:55;;;;;;;8.63;4.60;;;23.40;1.00;;;;;;5057028;28;20386;-74
2023/06/04 11:39:21;;;;;;;6.50;3.50;;;23.50;1.00;;;;;;5061860;28;20395;-77
2023/06/04 11:41:48;;;;;;;4.50;3.00;;;23.50;1.00;;;;;;5063159;28;20378;-72
2023/06/04 11:44:14;;;;;;;3.65;3.10;;;23.60;1.00;;;;;;5058777;28;20381;-74
2023/06/04 11:46:43;;;;;;;4.80;2.97;;;23.50;1.00;;;;;;5060472;28;20442;-74
2023/06/04 11:49:11;;;;;;;7.05;3.88;;;23.60;1.00;;;;;;5058590;28;20389;-74
2023/06/04 11:51:37;;;;;;;7.20;3.70;;;23.60;1.00;;;;;;5055298;28;20920;-74
2023/06/04 11:54:03;;;;;;;7.70;5.20;;;23.70;1.00;;;;;;5055953;28;20392;-74
2023/06/04 11:56:29;;;;;;;5.78;3.10;;;23.90;1.00;;;;;;5055759;28;20976;-74
2023/06/04 11:58:55;;;;;;;6.93;3.58;;;24.10;1.00;;;;;;5056424;28;20805;-75
2023/06/04 12:01:22;;;;;;;6.43;4.45;;;24.00;1.00;;;;;;5057415;28;20412;-76
2023/06/04 12:03:48;;;;;;;3.67;3.30;;;24.00;1.00;;;;;;5060425;28;20385;-73
2023/06/04 12:06:20;;;;;;;5.45;2.80;;;24.00;1.00;;;;;;5060886;28;20393;-73
2023/06/04 12:08:51;;;;;;;7.63;2.88;;;23.90;1.00;;;;;;5061079;28;20386;-73
2023/06/04 12:11:31;;;;;;;6.95;3.20;;;23.90;1.00;;;;;;5058860;28;20420;-74
2023/06/04 12:13:59;;;;;;;6.22;3.38;;;24.00;1.00;;;;;;5061512;28;20381;-74
2023/06/04 12:16:24;;;;;;;4.70;3.40;;;23.90;1.00;;;;;;5056820;28;20465;-73
2023/06/04 12:18:50;;;;;;;5.20;2.90;;;24.00;1.00;;;;;;5056520;28;20421;-76
2023/06/04 12:21:27;;;;;;;5.10;3.30;;;24.10;1.00;;;;;;5066752;28;20389;-73
2023/06/04 12:24:13;;;;;;;5.80;4.10;;;24.20;1.00;;;;;;5050801;28;20472;-74
2023/06/04 12:26:43;;;;;;;4.18;3.70;;;24.40;1.00;;;;;;5051043;28;20413;-74
2023/06/04 12:29:14;;;;;;;6.22;3.72;;;24.30;1.00;;;;;;5050628;28;20472;-72
2023/06/04 12:31:41;;;;;;;7.88;3.55;;;24.40;1.00;;;;;;5051390;28;20500;-72
2023/06/04 12:34:07;;;;;;;5.88;3.20;;;24.60;1.00;;;;;;5053535;28;20501;-76
2023/06/04 12:36:36;;;;;;;3.78;2.53;;;24.40;1.00;;;;;;5055711;28;20432;-73
2023/06/04 12:39:03;;;;;;;5.28;3.10;;;24.20;1.00;;;;;;5056347;28;20377;-73
2023/06/04 12:41:29;;;;;;;3.45;2.85;;;24.20;1.00;;;;;;5056265;28;20408;-73
2023/06/04 12:43:55;;;;;;;5.75;3.55;;;24.40;1.00;;;;;;5054858;28;20400;-74
2023/06/04 12:46:22;;;;;;;5.60;2.55;;;24.40;1.00;;;;;;5054379;28;20755;-72
2023/06/04 12:48:52;;;;;;;5.03;2.55;;;24.50;1.00;;;;;;5054632;28;20435;-73
2023/06/04 12:51:18;;;;;;;5.00;2.80;;;24.50;1.00;;;;;;5055194;28;20736;-74